AddedLatest Added eBooks:

  1. 2021-11-24Pocket Playmates No3 1996 03
  2. 2021-11-24Genome Editing & CRISPR tech Course for absolute beginners
  3. 2021-11-24Practical neuroscience: 30 exercises for a better brain
  4. 2021-11-24Basics of CRISPR/Cas9 Technology
  5. 2021-11-24The Complete Google Analytics Training for Beginners 2022
  6. 2021-11-24Microsoft Excel - Advance Level MS Excel Training Course
  7. 2021-11-24Leo Magazine 2000 02
  8. 2021-11-24Score Voluptuous 2019 Volume 26 03
  9. 2021-11-24A Stylish Introduction to Buttercream Cake Decorating
  10. 2021-11-2418 Magazine N 107
  11. 2021-11-24Introductory course in Biotechnology
  12. 2021-11-24Swedish conversation with Swedish4Real
  13. 2021-11-24OneDrive Essentials for the Workplace -OneDrive Fundamentals
  14. 2021-11-24Club 2018 03
  15. 2021-11-24Digital Marketing: Email Marketing - Building an Email List & Converting Subscribers with Templates
  16. 2021-11-24English Verbs, Adverbs, Prepositions, Conjunctions, Articles
  17. 2021-11-24Club Confidential 2011 01
  18. 2021-11-24PowerPoint Animation for Beginner
  19. 2021-11-24Troubleshoot and fix the 15 Ansible most common errors
  20. 2021-11-24Robin Robin 2021 720p NF WEBRip x264-GalaxyRG
  21. 2021-11-24Buttman Volume 16 03
  22. 2021-11-24Playboys Girls of Winter 1999
  23. 2021-11-24IOB Inside Out Babes - June 2021
  24. 2021-11-24Purely Legal 2017 12
  25. 2021-11-24Score Magazine 2008 12
  26. 2021-11-24Playboys Sexy Latin Ladies 1997
  27. 2021-11-24Financial Times (Europe Edition) - No. 40,865 [16 Nov 2021]
  28. 2021-11-24Sunday Express [2021.11.14]
  29. 2021-11-24Barely Legal 2016 08
  30. 2021-11-24Hustler 2017 01 Special Edition
  31. 2021-11-24Playboys Book Of Lingerie 1988 03
  32. 2021-11-24Professional Beauty and HJ Ireland - May June 2021
  33. 2021-11-24PuzzleLife PuzzlePad Sudoku - 04 November 2021
  34. 2021-11-24Sussex Life - December 2021
  35. 2021-11-24Swank 2012 07
  36. 2021-11-24Score Magazine 2014 04
  37. 2021-11-24Score Voluptuous 2015 12
  38. 2021-11-24Bikini Plus Special - May 2021
  39. 2021-11-24Maxim Australia - September 2021
  40. 2021-11-24Modelz View Issue 203 - July 2021
  41. 2021-11-24Modelz View Lite - January 2021
  42. 2021-11-24Lingerie Plus - August 2021
  43. 2021-11-24Hustler Magazine 2017 04
  44. 2021-11-24Hustler Magazine 2019 11
  45. 2021-11-24Oprah Daily - November 2021
  46. 2021-11-24Mega Magazine - November 2021 - Removed
  47. 2021-11-24Naples Illustrated - November 2021
  48. 2021-11-24Live Well Live Longer - 11 November 2021
  49. 2021-11-24The Humans (2021) 1080p WEBRip x265-RARBG
  50. 2021-11-24Robin Robin (2021) 1080p WEBRip x264-RARBG
  51. 2021-11-24Inspired For Life - 04 November 2021
  52. 2021-11-24Shetland S06E06 720p HEVC x265-MeGusta
  53. 2021-11-24Boiling Point (2021) 1080p WEBRip x265-RARBG
  54. 2021-11-24A Boy Called Christmas (2021) 1080p WEBRip x265-RARBG - Removed
  55. 2021-11-24Harpers Bazaar [USA] - November 2021
  56. 2021-11-24Little Trucker Down Under - Summer 2021
  57. 2021-11-24Robin Robin (2021) 1080p WEBRip x265-RARBG
  58. 2021-11-24Kent Life - December 2021
  59. 2021-11-24The Humans (2021) WEBRip XviD MP3-XVID
  60. 2021-11-24Robin Robin (2021) WEBRip x264-ION10
  61. 2021-11-24Gadgets Magazine - November 2021
  62. 2021-11-24Robin Robin (2021) WEBRip XviD MP3-XVID
  63. 2021-11-24Motorsport News - 04 November 2021
  64. 2021-11-24Numero Netherlands - 06 November 2021
  65. 2021-11-24Old Glory Archive Issue 3 - 26 February 2021
  66. 2021-11-24A Boy Called Christmas (2021) WEBRip XviD MP3-XVID - Removed
  67. 2021-11-24Malaysia Tatler - November 2021
  68. 2021-11-24National Geographic Kids [UK] - December 2021
  69. 2021-11-24Navy Times - 08 November 2021
  70. 2021-11-24The Humans (2021) 720p WEB H264-NAISU
  71. 2021-11-24Mens Fitness Guide - October 2021
  72. 2021-11-24Moviemaker Issue 140 - Summer 2021
  73. 2021-11-24Robin Robin (2021) 720p WEB h264-RUMOUR
  74. 2021-11-248-Bit Christmas (2021) WEBRip XviD MP3-XVID
  75. 2021-11-24McCalls Quilting - January February 2022
  76. 2021-11-24Harpers Bazaar [USA] - December 2021
  77. 2021-11-24The Humans (2021) WEBRip x264-ION10
  78. 2021-11-24Nitram (2021) 1080p WEBRip x264-RARBG - Removed
  79. 2021-11-24Nitram (2021) 1080p WEBRip x265-RARBG - Removed
  80. 2021-11-248-Bit Christmas (2021) WEBRip x264-ION10
  81. 2021-11-24A Boy Called Christmas (2021) WEBRip x264-ION10 - Removed
  82. 2021-11-24Medal News - November 2021
  83. 2021-11-24Nitram (2021) WEBRip x264-ION10 - Removed
  84. 2021-11-24Ashley Jones Is Perfectly Normal 2021 1080p AMZN WEBRip DDP2 0 x264-NOGRP
  85. 2021-11-24Maysville 2021 1080p AMZN WEBRip DDP2 0 x264-NOGRP
  86. 2021-11-24A Boy Called Christmas (2021) 720p WEB H264-NAISU - Removed
  87. 2021-11-24Love Island Australia S03E27 1080p HEVC x265-MeGusta
  88. 2021-11-24Gabriels Rapture Part One 2021 1080p AMZN WEBRip DDP2 0 x264-NOGRP
  89. 2021-11-24Nitram (2021) WEBRip XviD MP3-XVID - Removed
  90. 2021-11-24India Today - 15 November 2021
  91. 2021-11-248-Bit Christmas (2021) 720p WEB H264-PECULATE
  92. 2021-11-24The Matchmaker 2021 1080p AMZN WEBRip DDP2 0 x264-NOGRP
  93. 2021-11-24Horse and Hound - 11 November 2021
  94. 2021-11-24A Boy Called Christmas (2021) 1080p WEBRip x264-RARBG - Removed
  95. 2021-11-24Healthy Magazine - November December 2021
  96. 2021-11-248-Bit Christmas (2021) 1080p WEBRip x264-RARBG
  97. 2021-11-24Nitram (2021) 720p WEB H264-NAISU - Removed
  98. 2021-11-24MacLife [UK] - December 2021
  99. 2021-11-24Broken Diamonds 2021 1080p AMZN WEBRip DDP5 1 x264-TEPES

More eBooks ...

50520 pages, 5051992 eBooks in total, list all pages->

Search free ebooks in ebookee.com!
Back to Top